sensor_id;sensor_type;location;lat;lon;timestamp;P1;durP1;ratioP1;P2;durP2;ratioP2
43363;SDS011;40636;52.424;-1.948;2023-12-29T00:01:42;14.88;;;1.02;;
43363;SDS011;40636;52.424;-1.948;2023-12-29T00:04:09;18.92;;;4.40;;
43363;SDS011;40636;52.424;-1.948;2023-12-29T00:06:40;17.67;;;4.50;;
43363;SDS011;40636;52.424;-1.948;2023-12-29T00:09:22;19.48;;;5.22;;
43363;SDS011;40636;52.424;-1.948;2023-12-29T00:11:49;17.77;;;4.95;;
43363;SDS011;40636;52.424;-1.948;2023-12-29T00:14:17;11.50;;;4.38;;
43363;SDS011;40636;52.424;-1.948;2023-12-29T00:16:44;15.27;;;4.53;;
43363;SDS011;40636;52.424;-1.948;2023-12-29T00:19:11;10.15;;;3.80;;
43363;SDS011;40636;52.424;-1.948;2023-12-29T00:21:39;15.73;;;4.18;;
43363;SDS011;40636;52.424;-1.948;2023-12-29T00:24:06;16.92;;;4.35;;
43363;SDS011;40636;52.424;-1.948;2023-12-29T00:26:33;17.70;;;4.35;;
43363;SDS011;40636;52.424;-1.948;2023-12-29T00:28:59;14.40;;;4.57;;
43363;SDS011;40636;52.424;-1.948;2023-12-29T00:31:26;10.95;;;1.42;;
43363;SDS011;40636;52.424;-1.948;2023-12-29T00:33:53;13.90;;;4.20;;
43363;SDS011;40636;52.424;-1.948;2023-12-29T00:36:20;15.05;;;4.93;;
43363;SDS011;40636;52.424;-1.948;2023-12-29T00:38:47;16.05;;;4.32;;
43363;SDS011;40636;52.424;-1.948;2023-12-29T00:41:14;11.88;;;5.18;;
43363;SDS011;40636;52.424;-1.948;2023-12-29T00:43:41;19.63;;;4.90;;
43363;SDS011;40636;52.424;-1.948;2023-12-29T00:46:08;12.15;;;3.90;;
43363;SDS011;40636;52.424;-1.948;2023-12-29T00:48:35;12.05;;;3.65;;
43363;SDS011;40636;52.424;-1.948;2023-12-29T00:51:03;17.75;;;4.25;;
43363;SDS011;40636;52.424;-1.948;2023-12-29T00:53:30;15.20;;;4.13;;
43363;SDS011;40636;52.424;-1.948;2023-12-29T00:56:01;19.55;;;4.45;;
43363;SDS011;40636;52.424;-1.948;2023-12-29T00:58:28;16.58;;;4.03;;
43363;SDS011;40636;52.424;-1.948;2023-12-29T01:00:55;15.65;;;4.22;;
43363;SDS011;40636;52.424;-1.948;2023-12-29T01:03:22;15.13;;;4.15;;
43363;SDS011;40636;52.424;-1.948;2023-12-29T01:05:51;15.75;;;5.65;;
43363;SDS011;40636;52.424;-1.948;2023-12-29T01:08:18;17.67;;;4.18;;
43363;SDS011;40636;52.424;-1.948;2023-12-29T01:10:45;18.38;;;5.43;;
43363;SDS011;40636;52.424;-1.948;2023-12-29T01:13:12;12.35;;;3.92;;
43363;SDS011;40636;52.424;-1.948;2023-12-29T01:15:39;16.92;;;4.63;;
43363;SDS011;40636;52.424;-1.948;2023-12-29T01:18:07;0.68;;;0.68;;
43363;SDS011;40636;52.424;-1.948;2023-12-29T01:20:34;19.55;;;4.15;;
43363;SDS011;40636;52.424;-1.948;2023-12-29T01:23:00;19.17;;;5.10;;
43363;SDS011;40636;52.424;-1.948;2023-12-29T01:25:27;16.70;;;4.57;;
43363;SDS011;40636;52.424;-1.948;2023-12-29T01:27:54;13.77;;;3.70;;
43363;SDS011;40636;52.424;-1.948;2023-12-29T01:30:21;14.07;;;4.22;;
43363;SDS011;40636;52.424;-1.948;2023-12-29T01:32:48;19.70;;;4.72;;
43363;SDS011;40636;52.424;-1.948;2023-12-29T01:35:14;15.05;;;4.28;;
43363;SDS011;40636;52.424;-1.948;2023-12-29T01:37:44;15.57;;;4.70;;
43363;SDS011;40636;52.424;-1.948;2023-12-29T01:40:11;17.58;;;4.25;;
43363;SDS011;40636;52.424;-1.948;2023-12-29T01:42:38;17.05;;;4.95;;
43363;SDS011;40636;52.424;-1.948;2023-12-29T01:45:05;13.82;;;3.65;;
43363;SDS011;40636;52.424;-1.948;2023-12-29T01:47:32;15.82;;;4.82;;
43363;SDS011;40636;52.424;-1.948;2023-12-29T01:49:59;8.80;;;3.60;;
43363;SDS011;40636;52.424;-1.948;2023-12-29T01:52:26;14.13;;;4.35;;
43363;SDS011;40636;52.424;-1.948;2023-12-29T01:54:53;10.95;;;3.60;;
43363;SDS011;40636;52.424;-1.948;2023-12-29T01:57:21;4.28;;;1.48;;
43363;SDS011;40636;52.424;-1.948;2023-12-29T01:59:48;6.72;;;1.25;;
43363;SDS011;40636;52.424;-1.948;2023-12-29T02:02:15;11.98;;;3.70;;
43363;SDS011;40636;52.424;-1.948;2023-12-29T02:04:43;14.32;;;4.60;;
43363;SDS011;40636;52.424;-1.948;2023-12-29T02:07:11;16.13;;;4.30;;
43363;SDS011;40636;52.424;-1.948;2023-12-29T02:09:38;13.20;;;3.67;;
43363;SDS011;40636;52.424;-1.948;2023-12-29T02:12:05;14.07;;;3.85;;
43363;SDS011;40636;52.424;-1.948;2023-12-29T02:14:32;13.40;;;4.10;;
43363;SDS011;40636;52.424;-1.948;2023-12-29T02:19:39;15.32;;;4.50;;
43363;SDS011;40636;52.424;-1.948;2023-12-29T02:22:08;9.70;;;3.80;;
43363;SDS011;40636;52.424;-1.948;2023-12-29T02:24:36;19.02;;;4.93;;
43363;SDS011;40636;52.424;-1.948;2023-12-29T02:32:44;14.52;;;4.13;;
43363;SDS011;40636;52.424;-1.948;2023-12-29T02:35:14;15.45;;;4.00;;
43363;SDS011;40636;52.424;-1.948;2023-12-29T02:37:45;16.10;;;3.80;;
43363;SDS011;40636;52.424;-1.948;2023-12-29T02:40:14;14.55;;;5.03;;
43363;SDS011;40636;52.424;-1.948;2023-12-29T02:42:48;16.30;;;3.80;;
43363;SDS011;40636;52.424;-1.948;2023-12-29T02:45:15;15.00;;;4.65;;
43363;SDS011;40636;52.424;-1.948;2023-12-29T02:47:43;13.85;;;4.65;;
43363;SDS011;40636;52.424;-1.948;2023-12-29T02:50:11;14.48;;;4.00;;
43363;SDS011;40636;52.424;-1.948;2023-12-29T02:52:38;14.07;;;3.78;;
43363;SDS011;40636;52.424;-1.948;2023-12-29T02:55:04;16.02;;;3.60;;
43363;SDS011;40636;52.424;-1.948;2023-12-29T02:57:31;9.93;;;4.40;;
43363;SDS011;40636;52.424;-1.948;2023-12-29T02:59:58;14.15;;;4.25;;
43363;SDS011;40636;52.424;-1.948;2023-12-29T03:02:25;18.38;;;4.32;;
43363;SDS011;40636;52.424;-1.948;2023-12-29T03:04:52;20.63;;;5.03;;
43363;SDS011;40636;52.424;-1.948;2023-12-29T03:07:19;16.27;;;4.35;;
43363;SDS011;40636;52.424;-1.948;2023-12-29T03:09:46;17.45;;;3.97;;
43363;SDS011;40636;52.424;-1.948;2023-12-29T03:12:13;14.43;;;3.97;;
43363;SDS011;40636;52.424;-1.948;2023-12-29T03:14:40;15.35;;;3.78;;
43363;SDS011;40636;52.424;-1.948;2023-12-29T03:17:07;11.82;;;3.40;;
43363;SDS011;40636;52.424;-1.948;2023-12-29T03:19:34;1.55;;;0.85;;
43363;SDS011;40636;52.424;-1.948;2023-12-29T03:22:01;6.07;;;1.17;;
43363;SDS011;40636;52.424;-1.948;2023-12-29T03:24:28;6.53;;;1.85;;
43363;SDS011;40636;52.424;-1.948;2023-12-29T03:26:55;14.82;;;3.55;;
43363;SDS011;40636;52.424;-1.948;2023-12-29T03:29:22;18.70;;;4.72;;
43363;SDS011;40636;52.424;-1.948;2023-12-29T03:31:49;12.95;;;4.00;;
43363;SDS011;40636;52.424;-1.948;2023-12-29T03:34:16;6.60;;;1.70;;
43363;SDS011;40636;52.424;-1.948;2023-12-29T03:36:44;4.07;;;0.73;;
43363;SDS011;40636;52.424;-1.948;2023-12-29T03:39:11;13.70;;;3.17;;
43363;SDS011;40636;52.424;-1.948;2023-12-29T03:41:38;0.63;;;0.55;;
43363;SDS011;40636;52.424;-1.948;2023-12-29T03:44:04;10.70;;;4.50;;
43363;SDS011;40636;52.424;-1.948;2023-12-29T03:46:32;10.68;;;3.25;;
43363;SDS011;40636;52.424;-1.948;2023-12-29T03:48:59;11.00;;;3.92;;
43363;SDS011;40636;52.424;-1.948;2023-12-29T03:51:26;11.93;;;3.22;;
43363;SDS011;40636;52.424;-1.948;2023-12-29T03:53:53;8.35;;;3.28;;
43363;SDS011;40636;52.424;-1.948;2023-12-29T03:56:20;0.73;;;0.73;;
43363;SDS011;40636;52.424;-1.948;2023-12-29T03:58:47;1.45;;;0.40;;
43363;SDS011;40636;52.424;-1.948;2023-12-29T04:01:14;4.68;;;0.85;;
43363;SDS011;40636;52.424;-1.948;2023-12-29T04:03:43;9.98;;;3.03;;
43363;SDS011;40636;52.424;-1.948;2023-12-29T04:06:10;11.45;;;2.88;;
43363;SDS011;40636;52.424;-1.948;2023-12-29T04:08:37;12.02;;;3.08;;
43363;SDS011;40636;52.424;-1.948;2023-12-29T04:11:05;12.75;;;3.17;;
43363;SDS011;40636;52.424;-1.948;2023-12-29T04:13:32;9.63;;;3.00;;
43363;SDS011;40636;52.424;-1.948;2023-12-29T04:15:59;10.20;;;3.53;;
43363;SDS011;40636;52.424;-1.948;2023-12-29T04:18:26;13.30;;;3.47;;
43363;SDS011;40636;52.424;-1.948;2023-12-29T04:20:53;12.32;;;3.45;;
43363;SDS011;40636;52.424;-1.948;2023-12-29T04:23:20;15.30;;;3.25;;
43363;SDS011;40636;52.424;-1.948;2023-12-29T04:25:46;9.73;;;4.20;;
43363;SDS011;40636;52.424;-1.948;2023-12-29T04:28:13;9.65;;;2.83;;
43363;SDS011;40636;52.424;-1.948;2023-12-29T04:30:40;9.23;;;2.47;;
43363;SDS011;40636;52.424;-1.948;2023-12-29T04:33:07;10.80;;;2.80;;
43363;SDS011;40636;52.424;-1.948;2023-12-29T04:35:33;9.65;;;3.17;;
43363;SDS011;40636;52.424;-1.948;2023-12-29T04:38:00;14.18;;;3.28;;
43363;SDS011;40636;52.424;-1.948;2023-12-29T04:40:27;9.55;;;3.08;;
43363;SDS011;40636;52.424;-1.948;2023-12-29T04:42:54;9.85;;;3.15;;
43363;SDS011;40636;52.424;-1.948;2023-12-29T04:45:21;13.13;;;3.42;;
43363;SDS011;40636;52.424;-1.948;2023-12-29T04:47:48;11.93;;;3.10;;
43363;SDS011;40636;52.424;-1.948;2023-12-29T04:50:14;12.82;;;3.17;;
43363;SDS011;40636;52.424;-1.948;2023-12-29T04:52:41;13.98;;;3.58;;
43363;SDS011;40636;52.424;-1.948;2023-12-29T04:55:08;10.13;;;2.78;;
43363;SDS011;40636;52.424;-1.948;2023-12-29T04:57:35;8.50;;;2.63;;
43363;SDS011;40636;52.424;-1.948;2023-12-29T05:00:02;12.63;;;2.80;;
43363;SDS011;40636;52.424;-1.948;2023-12-29T05:02:30;10.00;;;3.00;;
43363;SDS011;40636;52.424;-1.948;2023-12-29T05:04:57;8.63;;;2.97;;
43363;SDS011;40636;52.424;-1.948;2023-12-29T05:07:24;14.20;;;3.80;;
43363;SDS011;40636;52.424;-1.948;2023-12-29T05:09:51;14.43;;;3.63;;
43363;SDS011;40636;52.424;-1.948;2023-12-29T05:12:18;10.32;;;1.67;;
43363;SDS011;40636;52.424;-1.948;2023-12-29T05:14:45;0.43;;;0.43;;
43363;SDS011;40636;52.424;-1.948;2023-12-29T05:17:11;13.60;;;2.47;;
43363;SDS011;40636;52.424;-1.948;2023-12-29T05:19:38;10.25;;;3.35;;
43363;SDS011;40636;52.424;-1.948;2023-12-29T05:22:05;9.88;;;2.72;;
43363;SDS011;40636;52.424;-1.948;2023-12-29T05:24:32;10.55;;;3.10;;
43363;SDS011;40636;52.424;-1.948;2023-12-29T05:26:59;0.98;;;0.90;;
43363;SDS011;40636;52.424;-1.948;2023-12-29T05:29:26;16.13;;;4.40;;
43363;SDS011;40636;52.424;-1.948;2023-12-29T05:31:53;0.45;;;0.45;;
43363;SDS011;40636;52.424;-1.948;2023-12-29T05:34:20;1.05;;;1.05;;
43363;SDS011;40636;52.424;-1.948;2023-12-29T05:36:47;12.75;;;4.05;;
43363;SDS011;40636;52.424;-1.948;2023-12-29T05:39:16;10.70;;;3.20;;
43363;SDS011;40636;52.424;-1.948;2023-12-29T05:41:43;11.00;;;3.17;;
43363;SDS011;40636;52.424;-1.948;2023-12-29T05:44:09;0.73;;;0.73;;
43363;SDS011;40636;52.424;-1.948;2023-12-29T05:46:36;1.42;;;1.42;;
43363;SDS011;40636;52.424;-1.948;2023-12-29T05:49:03;1.38;;;1.05;;
43363;SDS011;40636;52.424;-1.948;2023-12-29T05:51:30;9.68;;;2.92;;
43363;SDS011;40636;52.424;-1.948;2023-12-29T05:53:57;16.33;;;3.42;;
43363;SDS011;40636;52.424;-1.948;2023-12-29T05:56:23;15.05;;;3.20;;
43363;SDS011;40636;52.424;-1.948;2023-12-29T05:58:51;10.35;;;3.00;;
43363;SDS011;40636;52.424;-1.948;2023-12-29T06:01:19;12.35;;;4.35;;
43363;SDS011;40636;52.424;-1.948;2023-12-29T06:03:46;2.08;;;1.88;;
43363;SDS011;40636;52.424;-1.948;2023-12-29T06:06:13;2.83;;;1.17;;
43363;SDS011;40636;52.424;-1.948;2023-12-29T06:08:40;1.25;;;1.20;;
43363;SDS011;40636;52.424;-1.948;2023-12-29T06:11:07;15.63;;;3.92;;
43363;SDS011;40636;52.424;-1.948;2023-12-29T06:13:34;11.65;;;3.90;;
43363;SDS011;40636;52.424;-1.948;2023-12-29T06:16:00;11.27;;;4.05;;
43363;SDS011;40636;52.424;-1.948;2023-12-29T06:18:28;9.43;;;3.35;;
43363;SDS011;40636;52.424;-1.948;2023-12-29T06:20:55;10.18;;;3.13;;
43363;SDS011;40636;52.424;-1.948;2023-12-29T06:23:22;11.63;;;3.88;;
43363;SDS011;40636;52.424;-1.948;2023-12-29T06:25:49;11.80;;;3.67;;
43363;SDS011;40636;52.424;-1.948;2023-12-29T06:28:16;14.38;;;3.72;;
43363;SDS011;40636;52.424;-1.948;2023-12-29T06:30:43;12.75;;;3.80;;
43363;SDS011;40636;52.424;-1.948;2023-12-29T06:33:10;14.20;;;3.80;;
43363;SDS011;40636;52.424;-1.948;2023-12-29T06:35:37;12.85;;;4.03;;
43363;SDS011;40636;52.424;-1.948;2023-12-29T06:38:05;10.38;;;3.58;;
43363;SDS011;40636;52.424;-1.948;2023-12-29T06:40:32;0.95;;;0.95;;
43363;SDS011;40636;52.424;-1.948;2023-12-29T06:42:59;16.65;;;3.65;;
43363;SDS011;40636;52.424;-1.948;2023-12-29T06:45:26;20.83;;;1.00;;
43363;SDS011;40636;52.424;-1.948;2023-12-29T06:47:53;9.18;;;1.20;;
43363;SDS011;40636;52.424;-1.948;2023-12-29T06:50:20;0.85;;;0.85;;
43363;SDS011;40636;52.424;-1.948;2023-12-29T06:52:46;1.65;;;0.38;;
43363;SDS011;40636;52.424;-1.948;2023-12-29T06:55:13;1.20;;;1.10;;
43363;SDS011;40636;52.424;-1.948;2023-12-29T06:57:40;18.25;;;2.00;;
43363;SDS011;40636;52.424;-1.948;2023-12-29T07:00:07;1.05;;;1.05;;
43363;SDS011;40636;52.424;-1.948;2023-12-29T07:02:37;3.40;;;0.98;;
43363;SDS011;40636;52.424;-1.948;2023-12-29T07:05:05;14.07;;;3.83;;
43363;SDS011;40636;52.424;-1.948;2023-12-29T07:07:32;11.73;;;3.70;;
43363;SDS011;40636;52.424;-1.948;2023-12-29T07:10:00;1.77;;;1.20;;
43363;SDS011;40636;52.424;-1.948;2023-12-29T07:12:28;4.90;;;1.88;;
43363;SDS011;40636;52.424;-1.948;2023-12-29T07:14:55;11.93;;;2.83;;
43363;SDS011;40636;52.424;-1.948;2023-12-29T07:17:22;1.75;;;1.42;;
43363;SDS011;40636;52.424;-1.948;2023-12-29T07:19:49;14.57;;;4.00;;
43363;SDS011;40636;52.424;-1.948;2023-12-29T07:22:16;11.73;;;3.55;;
43363;SDS011;40636;52.424;-1.948;2023-12-29T07:24:43;13.63;;;4.47;;
43363;SDS011;40636;52.424;-1.948;2023-12-29T07:27:10;0.50;;;0.50;;
43363;SDS011;40636;52.424;-1.948;2023-12-29T07:29:37;0.77;;;0.77;;
43363;SDS011;40636;52.424;-1.948;2023-12-29T07:32:04;1.05;;;1.02;;
43363;SDS011;40636;52.424;-1.948;2023-12-29T07:34:32;16.30;;;4.78;;
43363;SDS011;40636;52.424;-1.948;2023-12-29T07:36:59;8.65;;;3.60;;
43363;SDS011;40636;52.424;-1.948;2023-12-29T07:39:26;15.07;;;3.92;;
43363;SDS011;40636;52.424;-1.948;2023-12-29T07:41:52;14.73;;;3.72;;
43363;SDS011;40636;52.424;-1.948;2023-12-29T07:44:19;1.45;;;1.30;;
43363;SDS011;40636;52.424;-1.948;2023-12-29T07:46:46;2.00;;;0.98;;
43363;SDS011;40636;52.424;-1.948;2023-12-29T07:49:13;1.27;;;1.15;;
43363;SDS011;40636;52.424;-1.948;2023-12-29T07:51:40;2.58;;;0.98;;
43363;SDS011;40636;52.424;-1.948;2023-12-29T07:54:09;0.80;;;0.77;;
43363;SDS011;40636;52.424;-1.948;2023-12-29T07:56:36;6.30;;;1.35;;
43363;SDS011;40636;52.424;-1.948;2023-12-29T07:59:04;9.32;;;0.90;;
43363;SDS011;40636;52.424;-1.948;2023-12-29T08:01:31;12.63;;;2.97;;
43363;SDS011;40636;52.424;-1.948;2023-12-29T08:03:58;0.52;;;0.52;;
43363;SDS011;40636;52.424;-1.948;2023-12-29T08:06:25;4.30;;;2.30;;
43363;SDS011;40636;52.424;-1.948;2023-12-29T08:08:52;2.22;;;0.82;;
43363;SDS011;40636;52.424;-1.948;2023-12-29T08:11:20;1.38;;;1.27;;
43363;SDS011;40636;52.424;-1.948;2023-12-29T08:13:48;21.23;;;1.83;;
43363;SDS011;40636;52.424;-1.948;2023-12-29T08:16:16;11.82;;;3.55;;
43363;SDS011;40636;52.424;-1.948;2023-12-29T08:18:48;2.83;;;0.88;;
43363;SDS011;40636;52.424;-1.948;2023-12-29T08:21:19;0.40;;;0.40;;
43363;SDS011;40636;52.424;-1.948;2023-12-29T08:23:46;1.65;;;1.20;;
43363;SDS011;40636;52.424;-1.948;2023-12-29T08:26:14;25.65;;;1.20;;
43363;SDS011;40636;52.424;-1.948;2023-12-29T08:28:41;1.10;;;1.00;;
43363;SDS011;40636;52.424;-1.948;2023-12-29T08:31:09;1.92;;;1.65;;
43363;SDS011;40636;52.424;-1.948;2023-12-29T08:33:36;2.08;;;0.85;;
43363;SDS011;40636;52.424;-1.948;2023-12-29T08:36:04;1.30;;;1.15;;
43363;SDS011;40636;52.424;-1.948;2023-12-29T08:38:31;0.52;;;0.52;;
43363;SDS011;40636;52.424;-1.948;2023-12-29T08:40:58;24.75;;;5.07;;
43363;SDS011;40636;52.424;-1.948;2023-12-29T08:43:25;11.10;;;3.30;;
43363;SDS011;40636;52.424;-1.948;2023-12-29T08:45:53;14.88;;;4.00;;
43363;SDS011;40636;52.424;-1.948;2023-12-29T08:48:20;8.77;;;1.90;;
43363;SDS011;40636;52.424;-1.948;2023-12-29T08:50:48;10.45;;;3.20;;
43363;SDS011;40636;52.424;-1.948;2023-12-29T08:53:17;0.50;;;0.50;;
43363;SDS011;40636;52.424;-1.948;2023-12-29T08:55:44;1.00;;;0.68;;
43363;SDS011;40636;52.424;-1.948;2023-12-29T08:58:11;10.32;;;2.05;;
43363;SDS011;40636;52.424;-1.948;2023-12-29T09:00:39;8.95;;;3.50;;
43363;SDS011;40636;52.424;-1.948;2023-12-29T09:03:07;12.02;;;3.75;;
43363;SDS011;40636;52.424;-1.948;2023-12-29T09:05:34;13.32;;;4.43;;
43363;SDS011;40636;52.424;-1.948;2023-12-29T09:08:01;14.65;;;3.78;;
43363;SDS011;40636;52.424;-1.948;2023-12-29T09:10:28;10.93;;;3.85;;
43363;SDS011;40636;52.424;-1.948;2023-12-29T09:12:54;14.45;;;4.18;;
43363;SDS011;40636;52.424;-1.948;2023-12-29T09:15:21;13.90;;;4.35;;
43363;SDS011;40636;52.424;-1.948;2023-12-29T09:17:49;11.48;;;3.88;;
43363;SDS011;40636;52.424;-1.948;2023-12-29T09:20:16;12.10;;;3.50;;
43363;SDS011;40636;52.424;-1.948;2023-12-29T09:22:44;18.05;;;4.13;;
43363;SDS011;40636;52.424;-1.948;2023-12-29T09:25:11;0.40;;;0.40;;
43363;SDS011;40636;52.424;-1.948;2023-12-29T09:27:38;2.95;;;2.35;;
43363;SDS011;40636;52.424;-1.948;2023-12-29T09:30:05;12.93;;;3.17;;
43363;SDS011;40636;52.424;-1.948;2023-12-29T09:32:33;10.05;;;3.28;;
43363;SDS011;40636;52.424;-1.948;2023-12-29T09:35:00;9.00;;;3.20;;
43363;SDS011;40636;52.424;-1.948;2023-12-29T09:37:27;13.02;;;4.22;;
43363;SDS011;40636;52.424;-1.948;2023-12-29T09:39:53;13.68;;;3.55;;
43363;SDS011;40636;52.424;-1.948;2023-12-29T09:42:21;0.40;;;0.40;;
43363;SDS011;40636;52.424;-1.948;2023-12-29T09:44:51;12.68;;;3.63;;
43363;SDS011;40636;52.424;-1.948;2023-12-29T09:47:21;12.13;;;3.88;;
43363;SDS011;40636;52.424;-1.948;2023-12-29T09:49:51;1.75;;;0.80;;
43363;SDS011;40636;52.424;-1.948;2023-12-29T09:52:22;0.43;;;0.43;;
43363;SDS011;40636;52.424;-1.948;2023-12-29T09:54:52;0.50;;;0.50;;
43363;SDS011;40636;52.424;-1.948;2023-12-29T09:57:19;0.88;;;0.88;;
43363;SDS011;40636;52.424;-1.948;2023-12-29T09:59:48;14.10;;;3.53;;
43363;SDS011;40636;52.424;-1.948;2023-12-29T10:02:18;1.40;;;1.33;;
43363;SDS011;40636;52.424;-1.948;2023-12-29T10:04:47;1.20;;;1.20;;
43363;SDS011;40636;52.424;-1.948;2023-12-29T10:07:23;3.88;;;2.20;;
43363;SDS011;40636;52.424;-1.948;2023-12-29T10:09:52;7.13;;;1.27;;
43363;SDS011;40636;52.424;-1.948;2023-12-29T10:12:22;2.67;;;2.13;;
43363;SDS011;40636;52.424;-1.948;2023-12-29T10:15:01;0.82;;;0.82;;
43363;SDS011;40636;52.424;-1.948;2023-12-29T10:17:54;9.63;;;1.48;;
43363;SDS011;40636;52.424;-1.948;2023-12-29T10:26:14;7.15;;;1.52;;
43363;SDS011;40636;52.424;-1.948;2023-12-29T10:28:41;3.03;;;0.85;;
43363;SDS011;40636;52.424;-1.948;2023-12-29T10:31:10;13.77;;;3.55;;
43363;SDS011;40636;52.424;-1.948;2023-12-29T10:33:42;8.50;;;2.80;;
43363;SDS011;40636;52.424;-1.948;2023-12-29T10:36:10;0.55;;;0.55;;
43363;SDS011;40636;52.424;-1.948;2023-12-29T10:38:38;5.18;;;0.85;;
43363;SDS011;40636;52.424;-1.948;2023-12-29T10:41:15;14.80;;;4.03;;
43363;SDS011;40636;52.424;-1.948;2023-12-29T10:43:44;4.57;;;1.58;;
43363;SDS011;40636;52.424;-1.948;2023-12-29T10:46:13;11.38;;;3.63;;
43363;SDS011;40636;52.424;-1.948;2023-12-29T10:48:41;10.77;;;3.55;;
43363;SDS011;40636;52.424;-1.948;2023-12-29T10:51:08;12.35;;;2.95;;
43363;SDS011;40636;52.424;-1.948;2023-12-29T10:53:36;8.75;;;2.70;;
43363;SDS011;40636;52.424;-1.948;2023-12-29T10:56:16;13.65;;;3.67;;
43363;SDS011;40636;52.424;-1.948;2023-12-29T10:58:56;12.98;;;4.25;;
43363;SDS011;40636;52.424;-1.948;2023-12-29T11:01:26;10.27;;;3.13;;
43363;SDS011;40636;52.424;-1.948;2023-12-29T11:03:57;14.82;;;3.30;;
43363;SDS011;40636;52.424;-1.948;2023-12-29T11:06:25;7.97;;;2.15;;
43363;SDS011;40636;52.424;-1.948;2023-12-29T11:08:54;12.65;;;3.38;;
43363;SDS011;40636;52.424;-1.948;2023-12-29T11:11:21;7.43;;;2.65;;
43363;SDS011;40636;52.424;-1.948;2023-12-29T11:13:48;10.20;;;2.70;;
43363;SDS011;40636;52.424;-1.948;2023-12-29T11:16:16;5.53;;;2.00;;
43363;SDS011;40636;52.424;-1.948;2023-12-29T11:18:44;9.70;;;2.53;;
43363;SDS011;40636;52.424;-1.948;2023-12-29T11:21:11;7.88;;;2.33;;
43363;SDS011;40636;52.424;-1.948;2023-12-29T11:23:38;8.32;;;2.80;;
43363;SDS011;40636;52.424;-1.948;2023-12-29T11:26:05;4.47;;;2.08;;
43363;SDS011;40636;52.424;-1.948;2023-12-29T11:28:33;10.38;;;2.80;;
43363;SDS011;40636;52.424;-1.948;2023-12-29T11:31:00;8.68;;;2.53;;
43363;SDS011;40636;52.424;-1.948;2023-12-29T11:33:38;10.63;;;3.10;;
43363;SDS011;40636;52.424;-1.948;2023-12-29T11:39:02;13.88;;;3.75;;
43363;SDS011;40636;52.424;-1.948;2023-12-29T11:44:25;9.88;;;2.67;;
43363;SDS011;40636;52.424;-1.948;2023-12-29T11:46:53;8.63;;;2.72;;
43363;SDS011;40636;52.424;-1.948;2023-12-29T11:49:20;10.25;;;2.38;;
43363;SDS011;40636;52.424;-1.948;2023-12-29T11:51:47;5.85;;;2.10;;
43363;SDS011;40636;52.424;-1.948;2023-12-29T11:54:24;8.35;;;2.72;;
43363;SDS011;40636;52.424;-1.948;2023-12-29T11:56:52;8.20;;;2.50;;
43363;SDS011;40636;52.424;-1.948;2023-12-29T11:59:21;5.63;;;2.50;;
43363;SDS011;40636;52.424;-1.948;2023-12-29T12:01:58;6.68;;;2.25;;
43363;SDS011;40636;52.424;-1.948;2023-12-29T12:07:03;6.53;;;2.30;;
43363;SDS011;40636;52.424;-1.948;2023-12-29T12:09:31;9.15;;;2.53;;
43363;SDS011;40636;52.424;-1.948;2023-12-29T12:12:02;6.53;;;1.70;;
43363;SDS011;40636;52.424;-1.948;2023-12-29T12:14:43;5.20;;;2.03;;
43363;SDS011;40636;52.424;-1.948;2023-12-29T12:17:26;6.03;;;1.88;;
43363;SDS011;40636;52.424;-1.948;2023-12-29T12:20:07;4.28;;;1.77;;
43363;SDS011;40636;52.424;-1.948;2023-12-29T12:22:35;9.27;;;2.22;;
43363;SDS011;40636;52.424;-1.948;2023-12-29T12:25:05;7.03;;;2.00;;
43363;SDS011;40636;52.424;-1.948;2023-12-29T12:27:34;3.45;;;2.22;;
43363;SDS011;40636;52.424;-1.948;2023-12-29T12:30:04;6.75;;;2.20;;
43363;SDS011;40636;52.424;-1.948;2023-12-29T12:32:32;9.52;;;2.78;;
43363;SDS011;40636;52.424;-1.948;2023-12-29T12:34:58;3.78;;;2.17;;
43363;SDS011;40636;52.424;-1.948;2023-12-29T12:37:26;7.22;;;2.25;;
43363;SDS011;40636;52.424;-1.948;2023-12-29T12:39:54;5.38;;;1.60;;
43363;SDS011;40636;52.424;-1.948;2023-12-29T12:42:22;4.60;;;1.92;;
43363;SDS011;40636;52.424;-1.948;2023-12-29T12:44:54;2.58;;;1.30;;
43363;SDS011;40636;52.424;-1.948;2023-12-29T12:47:27;2.90;;;1.05;;
43363;SDS011;40636;52.424;-1.948;2023-12-29T12:50:00;5.13;;;1.60;;
43363;SDS011;40636;52.424;-1.948;2023-12-29T12:52:31;2.22;;;1.50;;
43363;SDS011;40636;52.424;-1.948;2023-12-29T12:54:59;3.83;;;1.52;;
43363;SDS011;40636;52.424;-1.948;2023-12-29T12:57:27;3.53;;;1.83;;
43363;SDS011;40636;52.424;-1.948;2023-12-29T12:59:54;4.47;;;1.48;;
43363;SDS011;40636;52.424;-1.948;2023-12-29T13:02:22;2.42;;;1.30;;
43363;SDS011;40636;52.424;-1.948;2023-12-29T13:04:50;3.58;;;1.00;;
43363;SDS011;40636;52.424;-1.948;2023-12-29T13:07:18;2.05;;;1.02;;
43363;SDS011;40636;52.424;-1.948;2023-12-29T13:09:45;2.40;;;1.40;;
43363;SDS011;40636;52.424;-1.948;2023-12-29T13:12:14;4.03;;;1.05;;
43363;SDS011;40636;52.424;-1.948;2023-12-29T13:14:42;3.53;;;1.40;;
43363;SDS011;40636;52.424;-1.948;2023-12-29T13:17:10;3.53;;;1.10;;
43363;SDS011;40636;52.424;-1.948;2023-12-29T13:19:38;5.60;;;0.90;;
43363;SDS011;40636;52.424;-1.948;2023-12-29T13:22:06;1.58;;;0.80;;
43363;SDS011;40636;52.424;-1.948;2023-12-29T13:24:34;3.08;;;0.80;;
43363;SDS011;40636;52.424;-1.948;2023-12-29T13:27:05;0.90;;;0.70;;
43363;SDS011;40636;52.424;-1.948;2023-12-29T13:29:34;1.45;;;0.73;;
43363;SDS011;40636;52.424;-1.948;2023-12-29T13:32:04;1.60;;;0.70;;
43363;SDS011;40636;52.424;-1.948;2023-12-29T13:40:16;0.95;;;0.75;;
43363;SDS011;40636;52.424;-1.948;2023-12-29T13:42:50;1.25;;;0.73;;
43363;SDS011;40636;52.424;-1.948;2023-12-29T13:45:22;2.35;;;0.88;;
43363;SDS011;40636;52.424;-1.948;2023-12-29T13:47:49;1.27;;;0.60;;
43363;SDS011;40636;52.424;-1.948;2023-12-29T13:50:16;2.38;;;0.93;;
43363;SDS011;40636;52.424;-1.948;2023-12-29T13:52:43;1.08;;;0.73;;
43363;SDS011;40636;52.424;-1.948;2023-12-29T13:55:10;0.80;;;0.70;;
43363;SDS011;40636;52.424;-1.948;2023-12-29T13:57:38;2.00;;;0.77;;
43363;SDS011;40636;52.424;-1.948;2023-12-29T14:00:17;1.48;;;0.70;;
43363;SDS011;40636;52.424;-1.948;2023-12-29T14:02:48;1.55;;;0.98;;
43363;SDS011;40636;52.424;-1.948;2023-12-29T14:08:07;1.38;;;0.82;;
43363;SDS011;40636;52.424;-1.948;2023-12-29T14:10:43;7.78;;;1.42;;
43363;SDS011;40636;52.424;-1.948;2023-12-29T14:13:11;1.33;;;0.90;;
43363;SDS011;40636;52.424;-1.948;2023-12-29T14:15:41;0.80;;;0.77;;
43363;SDS011;40636;52.424;-1.948;2023-12-29T14:20:39;0.30;;;0.30;;
43363;SDS011;40636;52.424;-1.948;2023-12-29T14:23:07;0.57;;;0.57;;
43363;SDS011;40636;52.424;-1.948;2023-12-29T14:25:34;0.80;;;0.65;;
43363;SDS011;40636;52.424;-1.948;2023-12-29T14:28:13;0.50;;;0.50;;
43363;SDS011;40636;52.424;-1.948;2023-12-29T14:30:49;0.20;;;0.20;;
43363;SDS011;40636;52.424;-1.948;2023-12-29T14:33:28;0.98;;;0.40;;
43363;SDS011;40636;52.424;-1.948;2023-12-29T14:35:55;1.35;;;0.80;;
43363;SDS011;40636;52.424;-1.948;2023-12-29T14:38:22;1.25;;;1.00;;
43363;SDS011;40636;52.424;-1.948;2023-12-29T14:40:51;0.88;;;0.73;;
43363;SDS011;40636;52.424;-1.948;2023-12-29T14:43:18;1.67;;;0.90;;
43363;SDS011;40636;52.424;-1.948;2023-12-29T14:45:45;2.80;;;0.80;;
43363;SDS011;40636;52.424;-1.948;2023-12-29T14:48:12;0.35;;;0.30;;
43363;SDS011;40636;52.424;-1.948;2023-12-29T14:50:39;0.65;;;0.52;;
43363;SDS011;40636;52.424;-1.948;2023-12-29T14:53:11;0.20;;;0.20;;
43363;SDS011;40636;52.424;-1.948;2023-12-29T14:55:38;2.30;;;0.68;;
43363;SDS011;40636;52.424;-1.948;2023-12-29T14:58:05;0.30;;;0.30;;
43363;SDS011;40636;52.424;-1.948;2023-12-29T15:00:31;0.85;;;0.85;;
43363;SDS011;40636;52.424;-1.948;2023-12-29T15:02:58;0.30;;;0.30;;
43363;SDS011;40636;52.424;-1.948;2023-12-29T15:05:25;1.27;;;0.73;;
43363;SDS011;40636;52.424;-1.948;2023-12-29T15:07:53;0.30;;;0.30;;